Bei Facebook empfehlenBei Twitter postenGoogle plusPinterest

Das Wetter im Erzgebirge am 19.08.2016

Wetter und Klima am 19.08.2016 Holzhau im Erzgebirge (630m ü.NN)
Letzte gemessene Temperatur und Uhrzeit der Messung23:45:00 Uhr10.60 °C
Temperatur (Maximum / Höchstwert) und Uhrzeit der Messung16:15:00 Uhr26.40 °C
Temperatur (Minimum / Tiefstwert) und Uhrzeit der Messung05:45:005.80 °C
Errechneter Absolutwert der Temperaturschwankungen zwischen Tmin und Tmax des Tages20.60 K
Errechnete Tagesmitteltemperatur15.65833 °C
Gesamt - Niederschlag des Tages (in flüssiger Form)0.00 Liter / m²
Luftdruck (Maximum / Höchstwert) und Zeitpunkt der Messung23:15:00 Uhr1011.60 hPa
Luftdruck (Minimum / Tiefstwert) und Zeitpunkt der Messung04:30:00 Uhr1008.30 hPa
Errechneter Absolutwert der Luftdruckschwankungen des Tages3.30 hPa
Höchste gemessene Windgeschwindigkeit und Uhrzeit der Messung23:45:00 Uhr0.00 km/h
Errechnete Windhäufigkeit in Relation zu den Messwerten des Tages0.00000 %
Niedrigste Windkühle (Windchill) und Zeitpunkt der Messung05:45:00 Uhr5.80 °C
Taupunkt (Maximum / Höchstwert) und Uhrzeit der Messung09:45:00 Uhr15.80 °C
Taupunkt (Minimum / Tiefstwert) und Uhrzeit der Messung05:45:004.40 °C
Anzahl der automatisch eingelesenen Messwerte 96

Detaillierte Wetter- und Klima- Messwerte für den 19.08.2016 in Holzhau im Erzgebirge (630m ü.NN)
ZeitTemperaturLuftdruckRel. LuftfeuchteWindWindrichtungWindchillTaupunktNiederschlag l/m²
23:45:0010.60 °C1011.30 hPa79.00 %7.10 °C 
23:30:0010.80 °C1011.40 hPa78.00 %7.10 °C 
23:15:0010.90 °C1011.60 hPa78.00 %7.20 °C 
23:00:0010.80 °C1011.40 hPa78.00 %7.10 °C 
22:45:0011.00 °C1011.50 hPa77.00 %7.10 °C 
22:30:0011.30 °C1011.50 hPa76.00 %7.20 °C 
22:15:0011.60 °C1011.50 hPa75.00 %7.30 °C 
22:00:0011.90 °C1011.30 hPa73.00 %7.20 °C 
21:45:0012.30 °C1011.30 hPa71.00 %7.20 °C 
21:30:0012.80 °C1011.20 hPa70.00 %7.50 °C 
21:15:0013.20 °C1011.20 hPa69.00 %7.60 °C 
21:00:0013.60 °C1011.10 hPa67.00 %7.60 °C 
20:45:0014.30 °C1010.70 hPa65.00 %7.80 °C 
20:30:0015.30 °C1010.50 hPa64.00 %8.50 °C 
20:15:0016.10 °C1010.50 hPa62.00 %8.80 °C 
20:00:0017.30 °C1010.40 hPa59.00 %9.20 °C 
19:45:0018.40 °C1010.50 hPa57.00 %9.70 °C 
19:30:0019.80 °C1010.30 hPa54.00 %10.20 °C 
19:15:0021.20 °C1010.20 hPa49.00 %10.10 °C 
19:00:0022.30 °C1010.40 hPa46.00 %10.10 °C 
18:45:0023.10 °C1010.40 hPa44.00 %10.20 °C 
18:30:0023.60 °C1010.50 hPa44.00 %10.60 °C 
18:15:0023.60 °C1010.50 hPa43.00 %10.30 °C 
18:00:0023.60 °C1010.30 hPa42.00 %9.90 °C 
17:45:0023.80 °C1010.40 hPa41.00 %9.80 °C 
17:30:0024.60 °C1010.40 hPa42.00 %10.80 °C 
17:15:0024.10 °C1010.50 hPa42.00 %10.40 °C 
17:00:0024.80 °C1010.50 hPa42.00 %11.00 °C 
16:45:0025.40 °C1010.40 hPa40.00 %10.80 °C 
16:30:0025.80 °C1010.30 hPa40.00 %11.20 °C 
16:15:0026.40 °C1010.10 hPa40.00 %11.70 °C 
16:00:0025.90 °C1010.30 hPa42.00 %12.00 °C 
15:45:0025.90 °C1010.30 hPa41.00 %11.60 °C 
15:30:0026.30 °C1010.20 hPa42.00 %12.40 °C 
15:15:0025.90 °C1010.30 hPa41.00 %11.60 °C 
15:00:0026.30 °C1010.30 hPa42.00 %12.40 °C 
14:45:0025.90 °C1010.20 hPa44.00 %12.70 °C 
14:30:0025.60 °C1010.20 hPa44.00 %12.40 °C 
14:15:0025.80 °C1010.30 hPa43.00 %12.30 °C 
14:00:0025.50 °C1010.40 hPa44.00 %12.40 °C 
13:45:0025.30 °C1010.30 hPa45.00 %12.50 °C 
13:30:0025.10 °C1010.40 hPa46.00 %12.70 °C 
13:15:0024.90 °C1010.30 hPa46.00 %12.50 °C 
13:00:0024.60 °C1010.30 hPa48.00 %12.90 °C 
12:45:0023.60 °C1010.20 hPa49.00 %12.30 °C 
12:30:0023.80 °C1010.30 hPa50.00 %12.80 °C 
12:15:0023.10 °C1009.90 hPa48.00 %11.50 °C 
12:00:0023.80 °C1010.10 hPa45.00 %11.20 °C 
11:45:0024.80 °C1009.90 hPa47.00 %12.70 °C 
11:30:0024.00 °C1010.00 hPa48.00 %12.30 °C 
11:15:0023.70 °C1009.80 hPa51.00 %13.00 °C 
11:00:0023.20 °C1009.70 hPa52.00 %12.80 °C 
10:45:0022.30 °C1009.80 hPa56.00 %13.10 °C 
10:30:0021.90 °C1009.60 hPa59.00 %13.50 °C 
10:15:0021.30 °C1009.60 hPa64.00 %14.20 °C 
10:00:0020.50 °C1009.60 hPa73.00 %15.50 °C 
09:45:0019.30 °C1009.60 hPa80.00 %15.80 °C 
09:30:0018.10 °C1009.60 hPa84.00 %15.40 °C 
09:15:0016.80 °C1009.50 hPa87.00 %14.60 °C 
09:00:0015.40 °C1009.50 hPa89.00 %13.60 °C 
08:45:0014.20 °C1009.50 hPa90.00 %12.60 °C 
08:30:0012.90 °C1009.40 hPa90.00 %11.30 °C 
08:15:0011.90 °C1009.50 hPa91.00 %10.50 °C 
08:00:0010.80 °C1009.40 hPa91.00 %9.40 °C 
07:45:009.90 °C1009.40 hPa92.00 %8.70 °C 
07:30:008.90 °C1009.40 hPa93.00 %7.80 °C 
07:15:007.20 °C1009.20 hPa92.00 %6.00 °C 
07:00:006.50 °C1009.30 hPa92.00 %5.30 °C 
06:45:006.10 °C1009.30 hPa91.00 %4.70 °C 
06:30:005.90 °C1008.90 hPa91.00 %4.50 °C 
06:15:005.90 °C1008.90 hPa91.00 %4.50 °C 
06:00:005.90 °C1008.80 hPa91.00 %4.50 °C 
05:45:005.80 °C1008.60 hPa91.00 %4.40 °C 
05:30:005.90 °C1008.60 hPa91.00 %4.50 °C 
05:15:006.10 °C1008.60 hPa91.00 %4.70 °C 
05:00:006.10 °C1008.40 hPa90.00 %4.60 °C 
04:45:006.10 °C1008.40 hPa90.00 %4.60 °C 
04:30:005.90 °C1008.30 hPa90.00 %4.40 °C 
04:15:006.10 °C1008.50 hPa90.00 %4.60 °C 
04:00:006.20 °C1008.40 hPa89.00 %4.50 °C 
03:45:006.30 °C1008.50 hPa89.00 %4.60 °C 
03:30:006.30 °C1008.50 hPa89.00 %4.60 °C 
03:15:006.80 °C1008.60 hPa89.00 %5.10 °C 
03:00:006.90 °C1008.60 hPa89.00 %5.20 °C 
02:45:006.90 °C1008.60 hPa89.00 %5.20 °C 
02:30:006.80 °C1008.70 hPa88.00 %5.00 °C 
02:15:006.90 °C1008.60 hPa88.00 %5.10 °C 
02:00:007.10 °C1008.90 hPa88.00 %5.30 °C 
01:45:007.10 °C1008.80 hPa88.00 %5.30 °C 
01:30:007.20 °C1008.80 hPa87.00 %5.20 °C 
01:15:007.50 °C1008.80 hPa87.00 %5.50 °C 
01:00:007.60 °C1008.80 hPa86.00 %5.40 °C 
00:45:008.10 °C1008.70 hPa86.00 %5.90 °C 
00:30:008.20 °C1008.70 hPa86.00 %6.00 °C 
00:15:008.10 °C1008.80 hPa86.00 %5.90 °C 
00:00:008.20 °C1008.70 hPa85.00 %5.80 °C 

Permanenter Link zu dieser Seite: Wetter im Erzgebirge am 19.08.2016
Performance-Info: Die Erstellung der Seite / Statistik(en) / Tabelle(n) erforderte 5 Datenbankserver-Abfrage(n) und dauerte 113 Millisekunden. (Dieser Messwert ist von der Gesamt-Auslastung des Servers abhängig.)
Erzgebirge - Wetter | Erzgebirge - Wetter (Mobilgeräte) | Komplette Klimadatenbank